Time;durP1;ratioP1;P1;durP2;ratioP2;P2;SDS_P1;SDS_P2;PMS_P1;PMS_P2;Temp;Humidity;BMP_temperature;BMP_pressure;BME280_temperature;BME280_humidity;BME280_pressure;Samples;Min_cycle;Max_cycle;Signal;HPM_P1;HPM_P2
2022/11/04 00:01:18;;;;;;;8.52;6.50;;;;;;;22.09;43.73;94940.56;5026526;28;20476;-62
2022/11/04 00:03:43;;;;;;;9.02;6.30;;;;;;;22.98;43.82;95063.53;5026112;28;20068;-69
2022/11/04 00:06:09;;;;;;;9.43;6.35;;;;;;;22.97;44.02;95067.53;5026561;28;20057;-70
2022/11/04 00:08:34;;;;;;;9.52;6.40;;;;;;;21.93;43.51;94917.66;5008500;28;20537;-68
2022/11/04 00:13:44;;;;;;;15.52;7.18;;;;;;;22.95;43.95;95070.00;5026346;28;20718;-67
2022/11/04 00:18:54;;;;;;;9.18;6.10;;;;;;;22.91;43.71;95074.19;5025784;28;20049;-67
2022/11/04 00:29:32;;;;;;;11.13;7.07;;;;;;;22.55;43.98;95025.66;5025774;28;20127;-70
2022/11/04 00:34:41;;;;;;;8.32;5.95;;;;;;;22.87;43.94;95062.09;5025602;28;20044;-63
2022/11/04 00:37:06;;;;;;;9.10;6.30;;;;;;;22.65;43.97;95024.13;5026653;28;20457;-67
2022/11/04 00:39:32;;;;;;;7.95;6.32;;;;;;;22.87;44.13;95062.88;5026137;28;20049;-64
2022/11/04 00:41:57;;;;;;;8.85;6.32;;;;;;;21.94;43.83;94916.41;5025337;28;20050;-71
2022/11/04 00:44:23;;;;;;;8.20;5.82;;;;;;;22.30;44.23;94977.06;5024395;28;20050;-64
2022/11/04 00:46:48;;;;;;;8.82;6.18;;;;;;;22.68;44.22;95028.56;5025476;28;20493;-71
2022/11/04 00:49:14;;;;;;;9.32;6.60;;;;;;;22.81;44.14;95053.22;5025997;28;20514;-71
2022/11/04 00:51:39;;;;;;;13.02;6.97;;;;;;;22.85;43.84;95048.25;5024200;28;20049;-70
2022/11/04 00:54:05;;;;;;;9.35;6.50;;;;;;;22.82;44.21;95065.59;5060921;28;20506;-67
2022/11/04 00:56:30;;;;;;;9.45;6.45;;;;;;;22.53;44.01;94996.22;5047463;28;20505;-66
2022/11/04 00:58:58;;;;;;;9.82;6.57;;;;;;;22.68;44.04;95025.84;5065208;28;20040;-70
2022/11/04 01:01:23;;;;;;;9.02;6.43;;;;;;;22.82;43.99;95044.56;5047761;28;20035;-68
2022/11/04 01:03:50;;;;;;;8.75;6.30;;;;;;;22.80;44.17;95040.88;5047026;28;20045;-67
2022/11/04 01:06:15;;;;;;;10.43;6.40;;;;;;;22.69;44.00;95021.88;5065164;28;20045;-68
2022/11/04 01:08:41;;;;;;;10.98;6.50;;;;;;;22.78;43.77;95043.34;5030274;28;20584;-67
2022/11/04 01:11:07;;;;;;;9.50;6.35;;;;;;;22.74;44.23;95021.84;5056138;28;20574;-65
2022/11/04 01:13:33;;;;;;;8.85;6.75;;;;;;;22.78;43.88;95032.47;5030824;28;20020;-69
2022/11/04 01:15:59;;;;;;;8.90;5.95;;;;;;;22.76;44.09;95026.78;5064739;28;20082;-67
2022/11/04 01:18:24;;;;;;;8.40;6.30;;;;;;;22.78;43.78;95027.00;5030993;28;20056;-66
2022/11/04 01:20:50;;;;;;;9.13;6.32;;;;;;;22.56;43.85;94994.50;5047033;28;20070;-64
2022/11/04 01:23:15;;;;;;;8.13;6.00;;;;;;;22.77;44.23;95009.22;5065049;28;20049;-69
2022/11/04 01:25:41;;;;;;;8.35;5.78;;;;;;;22.76;43.95;95018.63;5063822;28;20032;-70
2022/11/04 01:28:06;;;;;;;10.27;6.35;;;;;;;22.71;43.93;95006.53;5065179;28;20079;-66
2022/11/04 01:30:32;;;;;;;10.27;6.30;;;;;;;22.71;43.76;95003.06;5046615;28;20052;-70
2022/11/04 01:32:57;;;;;;;7.78;5.97;;;;;;;22.74;44.26;95032.00;5064354;28;20032;-64
2022/11/04 01:35:23;;;;;;;11.07;5.95;;;;;;;22.73;43.82;95030.50;5064258;28;20143;-68
2022/11/04 01:37:48;;;;;;;9.18;6.03;;;;;;;22.51;44.16;94976.19;5064677;28;20044;-64
2022/11/04 01:40:13;;;;;;;9.68;6.07;;;;;;;22.75;43.88;95047.06;5046299;28;20028;-69
2022/11/04 01:42:39;;;;;;;9.10;6.10;;;;;;;21.68;44.19;94857.50;5064222;28;20119;-70
2022/11/04 01:45:07;;;;;;;9.52;6.10;;;;;;;22.59;44.08;94993.50;5064025;28;20567;-69
2022/11/04 01:47:39;;;;;;;8.32;6.10;;;;;;;22.71;44.26;95017.41;5030264;28;20166;-69
2022/11/04 01:50:15;;;;;;;8.82;6.10;;;;;;;22.70;44.17;95004.31;5063913;28;20044;-68
2022/11/04 01:52:48;;;;;;;9.48;5.53;;;;;;;22.70;44.22;95004.31;5045957;28;20037;-68
2022/11/04 01:55:17;;;;;;;9.15;6.30;;;;;;;20.89;43.87;94733.88;5046549;28;20029;-71
2022/11/04 01:57:44;;;;;;;9.15;6.10;;;;;;;22.69;43.96;95000.84;5030452;28;20047;-64
2022/11/04 02:00:10;;;;;;;9.25;6.18;;;;;;;22.51;44.05;94970.75;5045855;28;20437;-67
2022/11/04 02:02:39;;;;;;;8.70;5.90;;;;;;;22.32;43.94;94952.84;5063608;28;20431;-67
2022/11/04 02:05:05;;;;;;;9.13;6.22;;;;;;;22.41;44.18;94959.44;5029302;28;20035;-67
2022/11/04 02:07:30;;;;;;;9.32;6.05;;;;;;;22.28;44.11;94936.78;5064654;28;20028;-63
2022/11/04 02:09:55;;;;;;;8.60;5.63;;;;;;;22.68;44.06;94998.63;5063675;28;20564;-67
2022/11/04 02:15:05;;;;;;;9.90;6.22;;;;;;;22.45;43.90;94972.78;5063384;28;20058;-67
2022/11/04 02:17:55;;;;;;;9.52;5.95;;;;;;;22.12;44.08;94924.00;5032658;28;20045;-69
2022/11/04 02:20:43;;;;;;;9.18;6.13;;;;;;;22.67;43.93;94988.97;4995577;28;20044;-70
2022/11/04 02:23:38;;;;;;;10.10;6.57;;;;;;;22.65;43.93;94991.47;5063506;28;20051;-69
2022/11/04 02:26:48;;;;;;;9.63;5.90;;;;;;;22.62;43.82;94984.31;5064137;28;20036;-70
2022/11/04 02:29:25;;;;;;;10.50;5.63;;;;;;;22.67;43.97;94983.53;5043212;28;20113;-66
2022/11/04 02:31:55;;;;;;;8.50;5.88;;;;;;;22.46;43.79;94966.09;5045769;28;20067;-66
2022/11/04 02:34:24;;;;;;;8.48;6.18;;;;;;;22.63;43.96;94983.81;5046272;28;20081;-69
2022/11/04 02:37:02;;;;;;;9.13;6.13;;;;;;;22.37;43.93;94944.63;5061680;28;20347;-67
2022/11/04 02:39:46;;;;;;;8.77;5.68;;;;;;;22.64;43.93;94984.53;5046491;28;20056;-63
2022/11/04 02:42:27;;;;;;;8.25;5.43;;;;;;;22.64;43.95;94984.53;5063572;28;20370;-64
2022/11/04 02:44:57;;;;;;;8.27;5.40;;;;;;;22.63;44.01;94983.06;5046205;28;20059;-66
2022/11/04 02:47:25;;;;;;;7.80;5.80;;;;;;;20.77;44.05;94705.31;5045301;28;20052;-69
2022/11/04 02:50:14;;;;;;;7.63;5.63;;;;;;;22.61;44.20;94975.41;5045506;28;20036;-68
2022/11/04 02:52:52;;;;;;;9.98;6.13;;;;;;;22.61;43.85;94977.38;5052708;28;20496;-70
2022/11/04 02:55:21;;;;;;;8.48;5.55;;;;;;;22.60;44.07;94979.38;5063274;28;20359;-68
2022/11/04 02:57:47;;;;;;;7.45;5.63;;;;;;;22.60;43.85;95022.16;5028843;28;20416;-70
2022/11/04 03:00:13;;;;;;;9.85;5.57;;;;;;;21.69;43.94;94842.69;5045294;28;20052;-65
2022/11/04 03:02:48;;;;;;;8.88;5.95;;;;;;;22.53;44.29;94971.00;5028534;28;20056;-69
2022/11/04 03:05:16;;;;;;;7.65;5.45;;;;;;;22.57;44.01;94974.19;5045366;28;20075;-71
2022/11/04 03:07:43;;;;;;;7.10;5.35;;;;;;;22.58;43.91;94976.41;5045038;28;20527;-71
2022/11/04 03:10:16;;;;;;;7.05;5.15;;;;;;;22.45;43.95;94980.94;5045607;28;20378;-64
2022/11/04 03:12:46;;;;;;;8.70;5.70;;;;;;;21.13;43.97;94789.78;5027706;28;20037;-70
2022/11/04 03:15:16;;;;;;;8.05;5.75;;;;;;;21.79;43.85;94857.44;5045277;28;20110;-73
2022/11/04 03:17:45;;;;;;;8.15;5.88;;;;;;;22.54;43.78;94975.94;5045230;28;20040;-69
2022/11/04 03:20:14;;;;;;;7.97;5.55;;;;;;;22.50;43.84;94963.84;5061141;28;20048;-69
2022/11/04 03:22:39;;;;;;;6.88;5.28;;;;;;;22.55;44.20;94982.13;5046936;28;20012;-68
2022/11/04 03:25:05;;;;;;;8.35;5.30;;;;;;;22.55;44.20;94982.13;5049526;28;20516;-69
2022/11/04 03:27:51;;;;;;;7.93;5.47;;;;;;;22.54;44.24;94978.66;5049451;28;20527;-68
2022/11/04 03:30:18;;;;;;;9.43;6.10;;;;;;;20.04;43.90;94602.22;5066694;28;20656;-66
2022/11/04 03:33:11;;;;;;;9.05;6.22;;;;;;;22.54;43.71;94988.81;5065488;28;20044;-63
2022/11/04 03:35:37;;;;;;;7.70;5.50;;;;;;;22.54;44.02;95002.41;5048497;28;20041;-70
2022/11/04 03:38:02;;;;;;;9.18;5.78;;;;;;;22.48;43.76;94977.22;5066552;28;20065;-64
2022/11/04 03:40:27;;;;;;;8.88;6.05;;;;;;;22.48;44.00;94971.75;5067295;28;20040;-68
2022/11/04 03:43:09;;;;;;;7.85;5.13;;;;;;;22.52;44.03;94972.25;5048646;28;20049;-70
2022/11/04 03:45:34;;;;;;;7.32;5.05;;;;;;;22.51;43.80;94981.66;5049575;28;20588;-67
2022/11/04 03:48:00;;;;;;;8.35;5.95;;;;;;;22.23;43.88;94923.22;5066605;28;20040;-64
2022/11/04 03:50:30;;;;;;;7.95;5.40;;;;;;;22.50;44.19;94977.47;5048545;28;20529;-68
2022/11/04 03:52:56;;;;;;;8.40;5.68;;;;;;;22.50;43.88;94969.31;5032029;28;20098;-69
2022/11/04 03:55:35;;;;;;;8.85;5.53;;;;;;;22.39;43.87;94946.84;5049096;28;20477;-64
2022/11/04 03:58:07;;;;;;;8.35;5.55;;;;;;;21.45;43.61;94818.06;5032466;28;20072;-66
2022/11/04 04:00:35;;;;;;;8.18;5.28;;;;;;;22.36;44.38;94962.22;5032450;28;20052;-70
2022/11/04 04:03:03;;;;;;;8.27;5.68;;;;;;;22.49;44.28;94978.69;5031138;28;20090;-70
2022/11/04 04:05:41;;;;;;;7.28;5.57;;;;;;;22.44;44.10;94965.88;5047267;28;20044;-66
2022/11/04 04:08:42;;;;;;;6.72;5.18;;;;;;;22.47;44.10;94964.88;5049106;28;20170;-70
2022/11/04 04:11:22;;;;;;;7.72;6.00;;;;;;;22.47;43.89;94975.75;4996936;28;20425;-69
2022/11/04 04:14:38;;;;;;;8.10;5.78;;;;;;;22.48;44.15;94955.44;5048051;28;20516;-67
2022/11/04 04:17:30;;;;;;;8.45;5.43;;;;;;;22.46;44.06;94957.94;5025878;28;20093;-69
2022/11/04 04:20:00;;;;;;;8.25;5.93;;;;;;;22.45;43.80;94956.44;5054907;28;20071;-65
2022/11/04 04:22:28;;;;;;;8.57;5.72;;;;;;;22.46;44.19;94975.00;5049172;28;20032;-69
2022/11/04 04:27:38;;;;;;;8.40;5.97;;;;;;;22.19;44.05;94918.00;5049519;28;20043;-67
2022/11/04 04:30:06;;;;;;;7.88;5.50;;;;;;;22.20;44.07;94941.25;5047733;28;20073;-71
2022/11/04 04:32:34;;;;;;;8.27;5.60;;;;;;;22.44;44.07;94968.59;5047935;28;20060;-70
2022/11/04 04:37:43;;;;;;;7.82;5.20;;;;;;;22.44;44.16;94960.44;5050363;28;20047;-68
2022/11/04 04:45:41;;;;;;;8.40;5.43;;;;;;;22.41;44.08;94961.44;5049583;28;20372;-71
2022/11/04 04:48:07;;;;;;;6.90;5.10;;;;;;;22.43;43.99;94964.38;5031291;28;20052;-70
2022/11/04 04:50:35;;;;;;;8.05;5.53;;;;;;;22.43;43.53;94958.94;5030962;28;20036;-70
2022/11/04 04:53:02;;;;;;;7.75;5.07;;;;;;;22.42;43.75;94968.38;5047305;28;20505;-71
2022/11/04 04:55:30;;;;;;;7.38;5.60;;;;;;;22.41;43.70;94958.72;5047361;28;20119;-70
2022/11/04 04:57:56;;;;;;;7.28;5.03;;;;;;;22.41;43.84;94961.44;5046922;28;20047;-62
2022/11/04 05:00:21;;;;;;;8.20;5.20;;;;;;;22.40;44.10;94965.38;5046745;28;20143;-64
2022/11/04 05:02:47;;;;;;;8.05;5.55;;;;;;;22.19;43.80;94939.75;5065329;28;20067;-70
2022/11/04 05:05:12;;;;;;;8.18;5.70;;;;;;;22.51;43.42;94965.31;5058962;28;20068;-67
2022/11/04 05:07:38;;;;;;;7.82;5.38;;;;;;;22.55;44.02;94960.34;5060183;28;20028;-67
2022/11/04 05:10:05;;;;;;;8.15;5.28;;;;;;;22.53;44.27;94968.28;5029495;28;20043;-69
2022/11/04 05:13:24;;;;;;;8.20;5.47;;;;;;;22.47;44.11;94943.09;5063717;28;20404;-67
2022/11/04 05:15:16;;;;;;;7.57;5.35;;;;;;;22.53;43.96;94968.28;5064409;28;20124;-70
2022/11/04 05:17:41;;;;;;;8.00;5.60;;;;;;;22.52;44.12;94981.13;5054828;28;20125;-69
2022/11/04 05:20:08;;;;;;;9.23;5.45;;;;;;;22.62;44.03;94959.81;5047651;28;20056;-68
2022/11/04 05:22:33;;;;;;;7.13;5.55;;;;;;;22.73;44.06;94965.19;5013241;28;20037;-65
2022/11/04 05:24:59;;;;;;;6.53;5.13;;;;;;;22.71;44.34;94973.13;5056864;28;20036;-71
2022/11/04 05:27:24;;;;;;;7.25;5.15;;;;;;;22.71;44.61;94978.56;5064940;28;20044;-63
2022/11/04 05:29:49;;;;;;;7.80;5.47;;;;;;;22.71;43.96;94967.69;5064837;28;20289;-67
2022/11/04 05:32:15;;;;;;;9.65;5.47;;;;;;;22.23;44.04;94899.47;5064651;28;20420;-65
2022/11/04 05:34:40;;;;;;;7.45;5.50;;;;;;;22.81;44.13;94974.28;5064599;28;20414;-67
2022/11/04 05:37:06;;;;;;;8.52;5.95;;;;;;;22.84;43.78;94993.06;5064904;28;20513;-63
2022/11/04 05:39:31;;;;;;;9.77;6.10;;;;;;;22.87;43.92;94985.88;5064621;28;20108;-63
2022/11/04 05:41:57;;;;;;;6.90;5.55;;;;;;;22.92;43.82;94994.72;5056790;28;20112;-69
2022/11/04 05:44:23;;;;;;;7.88;5.30;;;;;;;22.91;43.75;94998.72;5046088;28;20060;-69
2022/11/04 05:46:48;;;;;;;7.30;5.45;;;;;;;21.92;43.55;94849.47;5063820;28;20025;-70
2022/11/04 05:49:13;;;;;;;7.28;5.38;;;;;;;23.15;43.71;94996.09;5061347;28;20031;-69
2022/11/04 05:51:39;;;;;;;5.90;5.10;;;;;;;23.06;43.43;95010.03;5058543;28;20087;-70
2022/11/04 05:54:04;;;;;;;7.97;5.32;;;;;;;22.88;43.74;94967.06;5063884;28;20048;-69
2022/11/04 05:56:30;;;;;;;6.97;5.00;;;;;;;23.12;43.84;95010.72;5064406;28;20041;-69
2022/11/04 05:58:55;;;;;;;8.18;5.85;;;;;;;23.23;43.10;95024.25;5053614;28;20056;-64
2022/11/04 06:01:37;;;;;;;6.75;5.47;;;;;;;23.30;43.48;95012.78;5043409;28;20324;-70
2022/11/04 06:04:04;;;;;;;7.97;5.18;;;;;;;23.26;43.40;95006.13;5025560;28;20049;-63
2022/11/04 06:06:32;;;;;;;7.63;5.35;;;;;;;23.30;42.52;94979.34;5045314;28;20037;-70
2022/11/04 06:08:58;;;;;;;6.90;5.30;;;;;;;23.41;42.74;95002.53;5029611;28;20471;-66
2022/11/04 06:11:24;;;;;;;7.20;5.60;;;;;;;23.33;43.05;95011.75;5053944;28;20131;-70
2022/11/04 06:13:50;;;;;;;9.82;5.40;;;;;;;23.35;42.38;95009.28;5045509;28;20500;-67
2022/11/04 06:16:15;;;;;;;7.75;5.38;;;;;;;23.23;42.76;94991.56;5045336;28;20245;-66
2022/11/04 06:18:41;;;;;;;6.10;5.07;;;;;;;22.88;42.77;94941.06;5062922;28;20131;-70
2022/11/04 06:21:13;;;;;;;8.13;5.55;;;;;;;23.40;42.50;95000.31;5063070;28;20525;-61
2022/11/04 06:23:42;;;;;;;7.47;5.13;;;;;;;23.82;42.13;95007.84;5045405;28;20372;-71
2022/11/04 06:26:08;;;;;;;6.68;4.55;;;;;;;23.81;42.13;95000.91;5063642;28;20037;-62
2022/11/04 06:28:33;;;;;;;8.52;5.15;;;;;;;23.80;42.02;94983.81;5062850;28;20036;-67
2022/11/04 06:30:59;;;;;;;7.82;5.45;;;;;;;23.85;42.19;95006.84;5061573;28;20066;-64
2022/11/04 06:33:25;;;;;;;9.23;5.00;;;;;;;23.85;41.90;94995.94;5062574;28;20500;-65
2022/11/04 06:35:50;;;;;;;8.02;5.50;;;;;;;23.60;42.31;95005.31;5060451;28;20103;-65
2022/11/04 06:38:16;;;;;;;7.20;5.20;;;;;;;23.87;42.05;95011.25;5061462;28;20495;-66
2022/11/04 06:40:41;;;;;;;8.60;5.03;;;;;;;23.90;42.29;95015.69;5063175;28;20055;-66
2022/11/04 06:43:07;;;;;;;6.97;4.50;;;;;;;23.88;41.85;95015.47;5063231;28;20025;-69
2022/11/04 06:45:32;;;;;;;6.88;5.47;;;;;;;23.65;41.83;94988.22;5044303;28;20036;-65
2022/11/04 06:47:58;;;;;;;9.30;5.13;;;;;;;23.89;42.36;95014.22;5045029;28;20114;-67
2022/11/04 06:50:23;;;;;;;8.73;5.15;;;;;;;23.73;42.23;95013.66;5062875;28;20045;-67
2022/11/04 06:52:49;;;;;;;7.03;4.82;;;;;;;23.88;42.08;95018.22;5043195;28;20487;-66
2022/11/04 06:55:14;;;;;;;7.13;4.72;;;;;;;23.46;42.09;94971.00;5061245;28;20044;-69
2022/11/04 06:57:39;;;;;;;7.63;5.47;;;;;;;23.67;42.17;95002.78;5062184;28;20076;-66
2022/11/04 07:00:06;;;;;;;8.52;4.95;;;;;;;23.86;42.54;95009.78;5027463;28;20754;-68
2022/11/04 07:02:31;;;;;;;8.80;5.28;;;;;;;23.73;42.62;94997.28;5058665;28;20036;-68
2022/11/04 07:04:56;;;;;;;6.90;5.22;;;;;;;22.83;42.34;94862.91;5044485;28;20107;-69
2022/11/04 07:07:22;;;;;;;9.68;5.68;;;;;;;23.86;42.11;95002.88;5041524;28;20048;-64
2022/11/04 07:09:47;;;;;;;8.60;5.93;;;;;;;23.87;42.34;95005.81;5041878;28;20509;-64
2022/11/04 07:12:13;;;;;;;9.13;5.10;;;;;;;23.85;41.96;94987.75;5035152;28;20045;-66
2022/11/04 07:14:38;;;;;;;7.60;4.93;;;;;;;24.16;41.64;94996.78;5055005;28;20057;-66
2022/11/04 07:17:04;;;;;;;8.35;5.60;;;;;;;24.06;41.75;94989.47;5053603;28;20059;-67
2022/11/04 07:19:29;;;;;;;6.80;5.18;;;;;;;23.85;41.66;94968.66;5026765;28;20029;-67
2022/11/04 07:21:54;;;;;;;6.43;4.97;;;;;;;23.98;41.70;94983.13;5043997;28;20044;-66
2022/11/04 07:24:20;;;;;;;7.25;5.15;;;;;;;23.86;41.26;94911.59;5049982;28;20041;-68
2022/11/04 07:26:45;;;;;;;7.07;5.72;;;;;;;24.28;41.06;94979.03;5044520;28;20111;-62
2022/11/04 07:29:11;;;;;;;7.13;5.60;;;;;;;24.13;41.27;94989.63;5062003;28;20067;-65
2022/11/04 07:31:37;;;;;;;8.45;5.70;;;;;;;24.02;41.88;94983.56;5060382;28;20150;-65
2022/11/04 07:34:02;;;;;;;8.45;5.55;;;;;;;24.10;41.33;94979.75;5024193;28;20037;-64
2022/11/04 07:36:28;;;;;;;8.05;5.93;;;;;;;24.30;41.38;94971.06;5024094;28;20040;-67
2022/11/04 07:38:53;;;;;;;7.82;5.68;;;;;;;24.09;41.86;94977.53;5023443;28;20155;-70
2022/11/04 07:41:19;;;;;;;9.93;5.75;;;;;;;23.63;42.22;94966.88;5028876;28;20204;-66
2022/11/04 09:49:07;;;;;;;9.10;6.80;;;;;;;23.81;41.42;94829.13;518439;26;20469;-64
2022/11/04 09:51:33;;;;;;;10.60;7.60;;;;;;;23.78;42.02;94827.41;5041077;28;20053;-64
2022/11/04 09:54:00;;;;;;;10.25;7.25;;;;;;;23.45;41.43;94762.41;5041302;28;20067;-66
2022/11/04 09:56:36;;;;;;;10.80;7.22;;;;;;;23.54;41.81;94767.50;5023289;28;20763;-65
2022/11/04 09:59:02;;;;;;;8.98;7.25;;;;;;;23.84;41.72;94803.53;5023752;28;20673;-65
2022/11/04 10:01:43;;;;;;;10.93;7.40;;;;;;;23.69;41.54;94801.28;5006601;23;20841;-63
2022/11/04 10:04:23;;;;;;;9.35;6.78;;;;;;;23.88;41.52;94799.25;4985743;28;20362;-65
2022/11/04 10:07:01;;;;;;;9.70;6.97;;;;;;;23.87;41.46;94787.63;5003664;28;20120;-63
2022/11/04 10:10:06;;;;;;;10.38;7.47;;;;;;;23.91;41.66;94803.69;5018240;22;20049;-70
2022/11/04 10:12:45;;;;;;;9.63;7.40;;;;;;;23.94;41.11;94781.56;5030120;28;20045;-68
2022/11/04 10:15:51;;;;;;;11.73;7.93;;;;;;;23.95;41.56;94783.03;5044084;28;20049;-69
2022/11/04 10:18:59;;;;;;;11.18;7.00;;;;;;;23.96;41.34;94773.63;5007459;28;20460;-67
2022/11/04 10:21:36;;;;;;;9.38;7.25;;;;;;;24.01;41.44;94763.88;5036233;28;20052;-61
2022/11/04 10:24:34;;;;;;;9.07;6.93;;;;;;;24.02;41.52;94771.53;5043725;28;20048;-71
2022/11/04 10:27:04;;;;;;;11.60;7.53;;;;;;;23.69;41.25;94714.03;5045134;28;20730;-71
2022/11/04 10:29:42;;;;;;;14.13;7.72;;;;;;;24.00;41.13;94735.84;5044662;28;20056;-68
2022/11/04 10:32:19;;;;;;;13.18;7.22;;;;;;;24.07;41.75;94761.78;5042041;28;20219;-66
2022/11/04 10:34:48;;;;;;;11.52;7.55;;;;;;;24.28;41.27;94741.59;5043128;28;20037;-64
2022/11/04 10:37:14;;;;;;;9.77;7.15;;;;;;;24.37;41.42;94733.03;5027479;28;20036;-69
2022/11/04 10:39:43;;;;;;;10.85;7.47;;;;;;;23.89;41.10;94643.28;5027824;28;20378;-69
2022/11/04 10:42:13;;;;;;;11.07;7.53;;;;;;;23.64;40.99;94599.63;5042742;28;20103;-72
2022/11/04 10:44:38;;;;;;;9.70;7.90;;;;;;;24.62;40.92;94728.84;5022837;28;20111;-72
2022/11/04 10:47:30;;;;;;;11.80;7.55;;;;;;;24.59;41.38;94713.56;5042709;28;20426;-67
2022/11/04 10:50:11;;;;;;;10.70;7.20;;;;;;;24.68;41.36;94699.47;5031042;28;20557;-67
2022/11/04 10:52:37;;;;;;;10.02;7.25;;;;;;;24.81;40.77;94699.47;5033836;28;20036;-68
2022/11/04 10:55:21;;;;;;;9.38;7.38;;;;;;;24.45;40.63;94654.72;5041627;28;20420;-65
2022/11/04 10:57:47;;;;;;;10.05;7.00;;;;;;;24.89;40.99;94690.13;5035864;28;20056;-62
2022/11/04 11:00:38;;;;;;;11.32;7.47;;;;;;;24.84;40.71;94683.50;5036917;28;20044;-65
2022/11/04 11:03:23;;;;;;;10.07;7.18;;;;;;;24.88;40.95;94670.25;5026398;28;20525;-70
2022/11/04 11:05:50;;;;;;;10.75;7.88;;;;;;;25.06;40.25;94668.69;5034409;28;20033;-68
2022/11/04 11:08:30;;;;;;;11.05;7.45;;;;;;;25.12;40.53;94669.31;5025894;28;20075;-66
2022/11/04 11:10:55;;;;;;;8.55;6.40;;;;;;;25.05;40.32;94651.56;5031699;28;20038;-68
2022/11/04 11:13:26;;;;;;;9.60;6.88;;;;;;;24.20;40.00;94508.81;5025173;28;20022;-65
2022/11/04 11:16:10;;;;;;;10.93;7.45;;;;;;;25.10;40.10;94658.19;5027361;28;20073;-67
2022/11/04 11:18:37;;;;;;;10.88;6.97;;;;;;;25.07;40.09;94637.38;5028726;28;20061;-68
2022/11/04 11:21:07;;;;;;;9.35;7.13;;;;;;;25.43;40.03;94647.25;5020158;28;20155;-62
2022/11/04 11:23:39;;;;;;;;;;;;;;;25.36;39.66;94637.69;5025850;28;20618;-71
2022/11/04 11:26:06;;;;;;;9.43;7.25;;;;;;;25.63;39.41;94632.84;5037790;28;20003;-64
2022/11/04 11:28:36;;;;;;;10.02;6.80;;;;;;;25.35;39.56;94619.06;5043472;28;20508;-66
2022/11/04 11:31:06;;;;;;;10.80;6.97;;;;;;;25.58;39.30;94615.31;5042853;28;20088;-70
2022/11/04 11:33:33;;;;;;;9.75;6.93;;;;;;;25.52;39.41;94611.25;5025382;28;20122;-65
2022/11/04 11:35:59;;;;;;;10.98;7.07;;;;;;;25.62;39.56;94609.50;5041870;28;20044;-71
2022/11/04 11:38:29;;;;;;;11.57;6.85;;;;;;;25.67;39.21;94584.06;5040994;28;20084;-71
2022/11/04 11:41:08;;;;;;;11.68;7.72;;;;;;;25.89;38.54;94612.34;5025136;28;20067;-68
2022/11/04 11:43:34;;;;;;;11.07;7.78;;;;;;;25.68;39.14;94612.88;5027577;28;20032;-66
2022/11/04 11:46:00;;;;;;;11.85;8.00;;;;;;;25.64;39.08;94596.03;5045437;28;20056;-72
2022/11/04 11:48:28;;;;;;;10.80;6.88;;;;;;;25.65;39.39;94592.03;5028255;28;20358;-66
2022/11/04 11:50:58;;;;;;;9.90;6.65;;;;;;;25.69;39.17;94581.50;5044505;28;20045;-66
2022/11/04 11:53:25;;;;;;;9.65;6.50;;;;;;;25.81;39.13;94584.19;5043843;28;20456;-67
2022/11/04 11:56:27;;;;;;;10.23;7.03;;;;;;;25.81;38.76;94600.59;5045892;28;20037;-63
2022/11/04 11:59:27;;;;;;;9.45;6.93;;;;;;;25.71;38.97;94573.50;5045692;28;20032;-60
2022/11/04 12:02:21;;;;;;;11.52;7.35;;;;;;;25.71;38.93;94557.09;5043688;28;20033;-65
2022/11/04 12:04:47;;;;;;;11.18;7.00;;;;;;;25.61;39.04;94575.22;5028424;28;20037;-73
2022/11/04 12:07:26;;;;;;;10.23;7.05;;;;;;;25.73;38.99;94576.47;5045107;28;20098;-71
2022/11/04 12:10:10;;;;;;;9.98;7.15;;;;;;;25.81;38.80;94562.31;5044483;28;20060;-69
2022/11/04 12:12:53;;;;;;;18.95;7.40;;;;;;;25.89;38.84;94563.09;5044219;28;20067;-66
2022/11/04 12:15:37;;;;;;;11.38;7.63;;;;;;;25.79;38.86;94559.34;5045995;28;20048;-73
2022/11/04 12:18:05;;;;;;;12.07;7.82;;;;;;;25.78;38.90;94557.16;5045985;28;20509;-70
2022/11/04 12:20:49;;;;;;;10.05;7.10;;;;;;;25.82;38.95;94557.56;5045313;28;20122;-70
2022/11/04 12:23:26;;;;;;;10.82;7.53;;;;;;;25.91;38.90;94555.06;5044775;28;20540;-69
2022/11/04 12:25:59;;;;;;;10.93;7.18;;;;;;;26.00;38.79;94557.31;5044340;28;20375;-67
2022/11/04 12:28:37;;;;;;;10.80;6.93;;;;;;;25.99;38.54;94561.34;5045772;28;20048;-70
2022/11/04 12:31:14;;;;;;;9.60;6.93;;;;;;;25.32;38.59;94450.69;5045227;28;20055;-69
2022/11/04 12:33:45;;;;;;;9.52;7.13;;;;;;;24.21;39.00;94330.19;5036794;28;20045;-65
2022/11/04 12:36:51;;;;;;;9.02;6.70;;;;;;;25.44;39.60;94520.94;5045354;28;20196;-69
2022/11/04 12:39:54;;;;;;;10.13;7.32;;;;;;;25.68;39.21;94549.97;4983176;28;20043;-63
2022/11/04 12:42:29;;;;;;;11.35;6.95;;;;;;;25.67;39.17;94548.50;5042921;28;20045;-64
2022/11/04 12:45:22;;;;;;;9.88;7.07;;;;;;;24.46;39.09;94373.06;5030417;28;20073;-68
2022/11/04 12:47:47;;;;;;;8.18;6.70;;;;;;;24.53;39.30;94393.50;5030783;28;20045;-68
2022/11/04 12:50:47;;;;;;;9.55;6.80;;;;;;;24.73;39.64;94433.75;5025502;28;20045;-69
2022/11/04 12:53:19;;;;;;;11.55;7.57;;;;;;;25.33;39.42;94523.22;5030280;28;20071;-70
2022/11/04 12:55:47;;;;;;;10.88;6.72;;;;;;;25.23;39.95;94541.34;5044770;28;20048;-71
2022/11/04 12:58:34;;;;;;;9.43;7.05;;;;;;;25.12;40.02;94519.72;5044125;28;20064;-62
2022/11/04 13:01:24;;;;;;;10.73;7.13;;;;;;;25.12;39.82;94525.19;5037002;28;20049;-71
2022/11/04 13:03:51;;;;;;;12.20;7.05;;;;;;;24.11;40.20;94391.94;5023657;28;20148;-72
2022/11/04 13:06:24;;;;;;;10.38;7.68;;;;;;;24.89;40.25;94518.75;5026066;28;20033;-68
2022/11/04 13:09:01;;;;;;;11.02;7.22;;;;;;;24.92;40.24;94527.91;5034357;28;20441;-67
2022/11/04 13:11:29;;;;;;;9.63;7.25;;;;;;;24.82;40.29;94524.88;5039648;28;20056;-67
2022/11/04 13:14:03;;;;;;;10.40;7.00;;;;;;;23.97;40.20;94404.13;5042714;28;20041;-62
2022/11/04 13:16:37;;;;;;;10.80;7.38;;;;;;;24.81;40.61;94527.41;5014978;28;20053;-60
2022/11/04 13:19:05;;;;;;;9.77;7.28;;;;;;;24.76;40.68;94544.66;5025961;28;20041;-62
2022/11/04 13:21:33;;;;;;;9.73;7.18;;;;;;;24.71;40.51;94529.09;5040464;28;20072;-65
2022/11/04 13:24:29;;;;;;;9.35;7.38;;;;;;;24.67;41.03;94534.16;5021851;28;20493;-66
2022/11/04 13:26:54;;;;;;;10.30;7.30;;;;;;;24.58;40.95;94537.34;5020153;28;20069;-66
2022/11/04 13:29:20;;;;;;;11.82;6.60;;;;;;;24.60;41.14;94534.81;5020782;28;20046;-73
2022/11/04 13:32:03;;;;;;;10.95;7.15;;;;;;;24.77;40.44;94526.97;5026611;28;20067;-63
2022/11/04 13:34:50;;;;;;;10.10;6.93;;;;;;;24.16;40.15;94410.19;5041863;28;20021;-71
2022/11/04 13:37:15;;;;;;;9.05;7.20;;;;;;;23.23;40.13;94288.69;5039301;28;20090;-66
2022/11/04 13:39:49;;;;;;;11.00;7.38;;;;;;;24.93;40.27;94530.09;5023244;28;20466;-63
2022/11/04 13:42:25;;;;;;;9.35;6.82;;;;;;;24.67;40.81;94534.16;5027600;28;20124;-66
2022/11/04 13:44:52;;;;;;;10.98;7.38;;;;;;;24.58;40.92;94504.56;5019873;28;20067;-60
2022/11/04 13:47:42;;;;;;;9.32;7.13;;;;;;;24.51;41.07;94521.59;5039755;28;20048;-67
2022/11/04 13:50:32;;;;;;;9.30;6.78;;;;;;;24.44;41.52;94528.44;5021472;28;20196;-70
2022/11/04 13:52:57;;;;;;;9.38;6.68;;;;;;;24.33;41.57;94514.28;5023920;28;20037;-71
2022/11/04 13:55:23;;;;;;;10.10;6.75;;;;;;;24.29;41.64;94515.81;5040616;28;20048;-63
2022/11/04 13:57:51;;;;;;;9.45;7.20;;;;;;;24.31;41.19;94503.13;5025905;28;20033;-62
2022/11/04 14:00:24;;;;;;;9.00;6.72;;;;;;;23.56;41.54;94405.22;5037944;28;20045;-65
2022/11/04 14:02:57;;;;;;;8.77;6.93;;;;;;;24.31;41.78;94510.59;5023130;28;20044;-68
2022/11/04 14:05:22;;;;;;;10.07;7.00;;;;;;;24.45;41.64;94499.88;5020822;28;20136;-65
2022/11/04 14:08:00;;;;;;;11.10;7.10;;;;;;;24.45;41.68;94507.31;5022683;28;20431;-61
2022/11/04 14:10:47;;;;;;;9.68;6.88;;;;;;;24.38;41.38;94502.53;5023459;28;20041;-71
2022/11/04 14:13:25;;;;;;;9.75;7.25;;;;;;;24.33;41.56;94506.09;5023463;28;20049;-69
2022/11/04 14:16:08;;;;;;;9.40;6.68;;;;;;;24.24;41.67;94508.50;5028886;28;20238;-68
2022/11/04 14:18:35;;;;;;;8.95;7.10;;;;;;;24.27;41.59;94507.44;5022807;28;20042;-69
2022/11/04 14:21:04;;;;;;;9.55;7.30;;;;;;;24.22;41.56;94511.75;5037462;28;20186;-67
2022/11/04 14:23:30;;;;;;;8.65;7.03;;;;;;;24.18;42.10;94516.78;5023042;28;20107;-66
2022/11/04 14:26:03;;;;;;;9.25;6.90;;;;;;;24.12;42.47;94518.88;5004790;28;20044;-66
2022/11/04 14:28:29;;;;;;;8.60;6.30;;;;;;;24.13;41.95;94517.63;5037577;28;20693;-69